Weather at Biggs Army Air Field (Fort Bliss)

Public forecast

Using degrees Fahrenheit for public forecast. Weather courtesy of forecast.io.

Current aviation weather report (METAR) for Biggs Army Air Field (Fort Bliss)

Report is more than 6 hours old.

2022/11/14 14:55 (retrieved 2 years ago)

KBIF 141455Z AUTO 13016G19KT 10SM CLR 09/M08 A3007 RMK AO2 PK WND 35031/1359 SLP156 T00861080 52042

Aviation forecast (TAF) for Biggs Army Air Field (Fort Bliss)

Forecast is more than 12 hours old.

2023/02/22 14:10 (retrieved 1 year ago)

TAF KBIF 221400Z 2214/2320 23025G30KT 9999 BKN030 OVC045 530054 QNH2971INS BECMG 2217/2218 24045G55KT 4800 BLDU SCT060 530067 QNH2968INS BECMG 2303/2304 24025G35KT 8000 -SHRA SCT040 BKN070 530073 QNH2980INS BECMG 2306/2307 27010G15KT 9999 NSW BKN065 OVC090 QNH2988INS BECMG 2318/2319 23020G25KT 9999 FEW040 510012 QNH3002INS TX15/2221Z TN06/2313Z